sensor_id;sensor_type;location;lat;lon;timestamp;P1;durP1;ratioP1;P2;durP2;ratioP2
11344;SDS011;5727;42.600;23.028;2022-09-29T00:00:46;3.43;;;2.47;;
11344;SDS011;5727;42.600;23.028;2022-09-29T00:03:16;3.50;;;2.60;;
11344;SDS011;5727;42.600;23.028;2022-09-29T00:05:46;4.40;;;2.33;;
11344;SDS011;5727;42.600;23.028;2022-09-29T00:08:14;7.23;;;2.77;;
11344;SDS011;5727;42.600;23.028;2022-09-29T00:10:42;8.33;;;2.63;;
11344;SDS011;5727;42.600;23.028;2022-09-29T00:13:09;3.03;;;2.43;;
11344;SDS011;5727;42.600;23.028;2022-09-29T00:15:36;3.73;;;2.40;;
11344;SDS011;5727;42.600;23.028;2022-09-29T00:18:03;2.97;;;2.37;;
11344;SDS011;5727;42.600;23.028;2022-09-29T00:20:32;3.70;;;2.37;;
11344;SDS011;5727;42.600;23.028;2022-09-29T00:22:59;4.37;;;2.50;;
11344;SDS011;5727;42.600;23.028;2022-09-29T00:25:27;4.93;;;2.90;;
11344;SDS011;5727;42.600;23.028;2022-09-29T00:27:54;2.90;;;2.27;;
11344;SDS011;5727;42.600;23.028;2022-09-29T00:30:21;3.53;;;2.63;;
11344;SDS011;5727;42.600;23.028;2022-09-29T00:32:48;3.80;;;2.57;;
11344;SDS011;5727;42.600;23.028;2022-09-29T00:35:15;3.50;;;2.93;;
11344;SDS011;5727;42.600;23.028;2022-09-29T00:37:44;3.03;;;2.40;;
11344;SDS011;5727;42.600;23.028;2022-09-29T00:40:11;4.37;;;2.57;;
11344;SDS011;5727;42.600;23.028;2022-09-29T00:42:37;4.20;;;2.87;;
11344;SDS011;5727;42.600;23.028;2022-09-29T00:45:15;6.33;;;3.60;;
11344;SDS011;5727;42.600;23.028;2022-09-29T00:47:45;6.90;;;3.60;;
11344;SDS011;5727;42.600;23.028;2022-09-29T00:50:19;3.83;;;3.27;;
11344;SDS011;5727;42.600;23.028;2022-09-29T00:52:53;7.87;;;3.43;;
11344;SDS011;5727;42.600;23.028;2022-09-29T00:55:26;7.30;;;3.60;;
11344;SDS011;5727;42.600;23.028;2022-09-29T00:57:57;3.57;;;3.10;;
11344;SDS011;5727;42.600;23.028;2022-09-29T01:00:28;3.20;;;2.53;;
11344;SDS011;5727;42.600;23.028;2022-09-29T01:02:56;5.40;;;2.73;;
11344;SDS011;5727;42.600;23.028;2022-09-29T01:05:28;3.87;;;2.73;;
11344;SDS011;5727;42.600;23.028;2022-09-29T01:07:58;5.43;;;2.93;;
11344;SDS011;5727;42.600;23.028;2022-09-29T01:10:31;4.50;;;2.70;;
11344;SDS011;5727;42.600;23.028;2022-09-29T01:13:00;6.37;;;3.73;;
11344;SDS011;5727;42.600;23.028;2022-09-29T01:15:28;6.10;;;2.90;;
11344;SDS011;5727;42.600;23.028;2022-09-29T01:17:55;4.30;;;2.60;;
11344;SDS011;5727;42.600;23.028;2022-09-29T01:20:22;4.67;;;2.57;;
11344;SDS011;5727;42.600;23.028;2022-09-29T01:23:01;4.00;;;2.80;;
11344;SDS011;5727;42.600;23.028;2022-09-29T01:25:58;3.17;;;2.80;;
11344;SDS011;5727;42.600;23.028;2022-09-29T01:28:50;4.93;;;2.13;;
11344;SDS011;5727;42.600;23.028;2022-09-29T01:31:40;2.90;;;2.60;;
11344;SDS011;5727;42.600;23.028;2022-09-29T01:34:16;3.57;;;2.47;;
11344;SDS011;5727;42.600;23.028;2022-09-29T01:36:51;6.73;;;2.50;;
11344;SDS011;5727;42.600;23.028;2022-09-29T01:39:28;6.10;;;2.50;;
11344;SDS011;5727;42.600;23.028;2022-09-29T01:42:01;3.27;;;2.57;;
11344;SDS011;5727;42.600;23.028;2022-09-29T01:44:31;4.87;;;2.70;;
11344;SDS011;5727;42.600;23.028;2022-09-29T01:47:04;3.73;;;2.40;;
11344;SDS011;5727;42.600;23.028;2022-09-29T01:49:36;3.60;;;2.50;;
11344;SDS011;5727;42.600;23.028;2022-09-29T01:52:07;3.97;;;2.40;;
11344;SDS011;5727;42.600;23.028;2022-09-29T01:54:36;2.83;;;2.63;;
11344;SDS011;5727;42.600;23.028;2022-09-29T01:57:09;4.90;;;3.10;;
11344;SDS011;5727;42.600;23.028;2022-09-29T01:59:42;6.60;;;3.17;;
11344;SDS011;5727;42.600;23.028;2022-09-29T02:02:15;3.20;;;2.90;;
11344;SDS011;5727;42.600;23.028;2022-09-29T02:04:47;6.57;;;2.90;;
11344;SDS011;5727;42.600;23.028;2022-09-29T02:07:19;3.50;;;2.53;;
11344;SDS011;5727;42.600;23.028;2022-09-29T02:09:52;5.80;;;3.13;;
11344;SDS011;5727;42.600;23.028;2022-09-29T02:12:24;4.20;;;2.70;;
11344;SDS011;5727;42.600;23.028;2022-09-29T02:14:53;4.10;;;2.63;;
11344;SDS011;5727;42.600;23.028;2022-09-29T02:17:25;3.10;;;2.40;;
11344;SDS011;5727;42.600;23.028;2022-09-29T02:19:56;3.13;;;2.50;;
11344;SDS011;5727;42.600;23.028;2022-09-29T02:22:23;4.80;;;2.87;;
11344;SDS011;5727;42.600;23.028;2022-09-29T02:24:50;4.10;;;2.60;;
11344;SDS011;5727;42.600;23.028;2022-09-29T02:27:20;3.63;;;2.40;;
11344;SDS011;5727;42.600;23.028;2022-09-29T02:29:48;5.87;;;3.07;;
11344;SDS011;5727;42.600;23.028;2022-09-29T02:32:15;4.33;;;2.90;;
11344;SDS011;5727;42.600;23.028;2022-09-29T02:34:45;4.13;;;2.60;;
11344;SDS011;5727;42.600;23.028;2022-09-29T02:37:20;3.07;;;2.77;;
11344;SDS011;5727;42.600;23.028;2022-09-29T02:39:53;3.93;;;3.00;;
11344;SDS011;5727;42.600;23.028;2022-09-29T02:42:32;4.20;;;3.00;;
11344;SDS011;5727;42.600;23.028;2022-09-29T02:45:13;4.80;;;3.73;;
11344;SDS011;5727;42.600;23.028;2022-09-29T02:47:57;5.97;;;3.57;;
11344;SDS011;5727;42.600;23.028;2022-09-29T02:50:38;6.23;;;2.87;;
11344;SDS011;5727;42.600;23.028;2022-09-29T02:53:17;5.00;;;4.00;;
11344;SDS011;5727;42.600;23.028;2022-09-29T02:55:58;5.33;;;3.93;;
11344;SDS011;5727;42.600;23.028;2022-09-29T02:58:33;5.57;;;3.90;;
11344;SDS011;5727;42.600;23.028;2022-09-29T03:01:04;12.10;;;6.03;;
11344;SDS011;5727;42.600;23.028;2022-09-29T03:03:32;5.50;;;3.40;;
11344;SDS011;5727;42.600;23.028;2022-09-29T03:06:01;6.37;;;4.10;;
11344;SDS011;5727;42.600;23.028;2022-09-29T03:08:28;5.03;;;3.30;;
11344;SDS011;5727;42.600;23.028;2022-09-29T03:10:54;4.07;;;3.33;;
11344;SDS011;5727;42.600;23.028;2022-09-29T03:13:21;3.60;;;2.97;;
11344;SDS011;5727;42.600;23.028;2022-09-29T03:15:48;5.03;;;3.40;;
11344;SDS011;5727;42.600;23.028;2022-09-29T03:18:15;6.47;;;2.90;;
11344;SDS011;5727;42.600;23.028;2022-09-29T03:20:41;3.17;;;2.87;;
11344;SDS011;5727;42.600;23.028;2022-09-29T03:23:10;5.93;;;2.97;;
11344;SDS011;5727;42.600;23.028;2022-09-29T03:25:36;3.60;;;2.87;;
11344;SDS011;5727;42.600;23.028;2022-09-29T03:28:03;5.40;;;2.70;;
11344;SDS011;5727;42.600;23.028;2022-09-29T03:30:30;4.93;;;3.27;;
11344;SDS011;5727;42.600;23.028;2022-09-29T03:32:57;5.63;;;3.13;;
11344;SDS011;5727;42.600;23.028;2022-09-29T03:35:23;5.10;;;3.43;;
11344;SDS011;5727;42.600;23.028;2022-09-29T03:37:50;4.60;;;3.33;;
11344;SDS011;5727;42.600;23.028;2022-09-29T03:40:18;5.10;;;3.50;;
11344;SDS011;5727;42.600;23.028;2022-09-29T03:42:45;6.97;;;4.40;;
11344;SDS011;5727;42.600;23.028;2022-09-29T03:45:12;9.63;;;4.17;;
11344;SDS011;5727;42.600;23.028;2022-09-29T03:47:39;6.43;;;4.23;;
11344;SDS011;5727;42.600;23.028;2022-09-29T03:50:06;8.17;;;4.63;;
11344;SDS011;5727;42.600;23.028;2022-09-29T03:52:33;6.27;;;5.00;;
11344;SDS011;5727;42.600;23.028;2022-09-29T03:55:00;5.53;;;4.37;;
11344;SDS011;5727;42.600;23.028;2022-09-29T03:57:28;9.13;;;4.50;;
11344;SDS011;5727;42.600;23.028;2022-09-29T03:59:55;5.80;;;4.07;;
11344;SDS011;5727;42.600;23.028;2022-09-29T04:02:21;9.40;;;4.97;;
11344;SDS011;5727;42.600;23.028;2022-09-29T04:04:48;6.50;;;4.67;;
11344;SDS011;5727;42.600;23.028;2022-09-29T04:07:15;4.90;;;4.33;;
11344;SDS011;5727;42.600;23.028;2022-09-29T04:09:42;8.53;;;4.50;;
11344;SDS011;5727;42.600;23.028;2022-09-29T04:12:08;8.93;;;4.90;;
11344;SDS011;5727;42.600;23.028;2022-09-29T04:14:36;6.50;;;4.97;;
11344;SDS011;5727;42.600;23.028;2022-09-29T04:17:03;8.23;;;4.73;;
11344;SDS011;5727;42.600;23.028;2022-09-29T04:19:30;8.07;;;4.57;;
11344;SDS011;5727;42.600;23.028;2022-09-29T04:22:00;9.23;;;4.80;;
11344;SDS011;5727;42.600;23.028;2022-09-29T04:24:27;7.73;;;4.70;;
11344;SDS011;5727;42.600;23.028;2022-09-29T04:26:53;7.73;;;4.33;;
11344;SDS011;5727;42.600;23.028;2022-09-29T04:29:20;9.53;;;5.43;;
11344;SDS011;5727;42.600;23.028;2022-09-29T04:31:48;8.20;;;4.87;;
11344;SDS011;5727;42.600;23.028;2022-09-29T04:34:15;12.03;;;5.83;;
11344;SDS011;5727;42.600;23.028;2022-09-29T04:36:42;8.57;;;5.00;;
11344;SDS011;5727;42.600;23.028;2022-09-29T04:39:09;11.27;;;5.67;;
11344;SDS011;5727;42.600;23.028;2022-09-29T04:41:35;11.13;;;5.27;;
11344;SDS011;5727;42.600;23.028;2022-09-29T04:44:03;13.10;;;4.70;;
11344;SDS011;5727;42.600;23.028;2022-09-29T04:46:31;10.40;;;5.10;;
11344;SDS011;5727;42.600;23.028;2022-09-29T04:48:59;11.47;;;5.10;;
11344;SDS011;5727;42.600;23.028;2022-09-29T04:51:26;18.20;;;5.77;;
11344;SDS011;5727;42.600;23.028;2022-09-29T04:53:53;11.07;;;4.63;;
11344;SDS011;5727;42.600;23.028;2022-09-29T04:56:20;14.73;;;3.93;;
11344;SDS011;5727;42.600;23.028;2022-09-29T04:58:48;10.87;;;4.70;;
11344;SDS011;5727;42.600;23.028;2022-09-29T05:01:15;13.97;;;4.67;;
11344;SDS011;5727;42.600;23.028;2022-09-29T05:03:41;11.83;;;3.83;;
11344;SDS011;5727;42.600;23.028;2022-09-29T05:06:10;10.57;;;3.40;;
11344;SDS011;5727;42.600;23.028;2022-09-29T05:08:37;8.90;;;3.00;;
11344;SDS011;5727;42.600;23.028;2022-09-29T05:11:04;7.77;;;3.10;;
11344;SDS011;5727;42.600;23.028;2022-09-29T05:13:31;9.17;;;3.90;;
11344;SDS011;5727;42.600;23.028;2022-09-29T05:15:59;12.23;;;4.13;;
11344;SDS011;5727;42.600;23.028;2022-09-29T05:18:27;7.53;;;3.57;;
11344;SDS011;5727;42.600;23.028;2022-09-29T05:20:54;8.93;;;3.20;;
11344;SDS011;5727;42.600;23.028;2022-09-29T05:23:22;11.57;;;2.90;;
11344;SDS011;5727;42.600;23.028;2022-09-29T05:25:49;13.53;;;3.90;;
11344;SDS011;5727;42.600;23.028;2022-09-29T05:28:15;10.73;;;3.47;;
11344;SDS011;5727;42.600;23.028;2022-09-29T05:30:42;10.77;;;4.03;;
11344;SDS011;5727;42.600;23.028;2022-09-29T05:33:09;5.53;;;3.47;;
11344;SDS011;5727;42.600;23.028;2022-09-29T05:35:36;5.97;;;3.47;;
11344;SDS011;5727;42.600;23.028;2022-09-29T05:38:03;8.00;;;3.20;;
11344;SDS011;5727;42.600;23.028;2022-09-29T05:40:31;7.90;;;3.43;;
11344;SDS011;5727;42.600;23.028;2022-09-29T05:42:58;8.63;;;3.10;;
11344;SDS011;5727;42.600;23.028;2022-09-29T05:45:25;12.10;;;4.07;;
11344;SDS011;5727;42.600;23.028;2022-09-29T05:47:52;11.60;;;4.30;;
11344;SDS011;5727;42.600;23.028;2022-09-29T05:50:20;10.43;;;4.43;;
11344;SDS011;5727;42.600;23.028;2022-09-29T05:52:47;14.47;;;4.57;;
11344;SDS011;5727;42.600;23.028;2022-09-29T05:55:15;8.63;;;4.17;;
11344;SDS011;5727;42.600;23.028;2022-09-29T05:57:47;8.67;;;4.43;;
11344;SDS011;5727;42.600;23.028;2022-09-29T06:00:14;19.50;;;6.50;;
11344;SDS011;5727;42.600;23.028;2022-09-29T06:02:41;16.67;;;5.07;;
11344;SDS011;5727;42.600;23.028;2022-09-29T06:05:08;14.37;;;5.83;;
11344;SDS011;5727;42.600;23.028;2022-09-29T06:07:35;14.63;;;4.50;;
11344;SDS011;5727;42.600;23.028;2022-09-29T06:10:02;10.50;;;4.63;;
11344;SDS011;5727;42.600;23.028;2022-09-29T06:12:32;14.10;;;4.20;;
11344;SDS011;5727;42.600;23.028;2022-09-29T06:15:02;8.67;;;3.27;;
11344;SDS011;5727;42.600;23.028;2022-09-29T06:17:29;7.43;;;2.93;;
11344;SDS011;5727;42.600;23.028;2022-09-29T06:19:55;10.93;;;2.63;;
11344;SDS011;5727;42.600;23.028;2022-09-29T06:22:23;4.13;;;2.50;;
11344;SDS011;5727;42.600;23.028;2022-09-29T06:24:51;5.63;;;2.47;;
11344;SDS011;5727;42.600;23.028;2022-09-29T06:27:18;6.07;;;2.77;;
11344;SDS011;5727;42.600;23.028;2022-09-29T06:29:45;7.67;;;2.90;;
11344;SDS011;5727;42.600;23.028;2022-09-29T06:32:13;3.73;;;1.70;;
11344;SDS011;5727;42.600;23.028;2022-09-29T06:34:39;3.87;;;1.60;;
11344;SDS011;5727;42.600;23.028;2022-09-29T06:37:20;3.57;;;1.43;;
11344;SDS011;5727;42.600;23.028;2022-09-29T06:40:04;4.87;;;1.83;;
11344;SDS011;5727;42.600;23.028;2022-09-29T06:42:32;2.30;;;1.30;;
11344;SDS011;5727;42.600;23.028;2022-09-29T06:44:59;4.03;;;1.50;;
11344;SDS011;5727;42.600;23.028;2022-09-29T06:47:27;7.10;;;1.57;;
11344;SDS011;5727;42.600;23.028;2022-09-29T06:49:53;3.83;;;1.50;;
11344;SDS011;5727;42.600;23.028;2022-09-29T06:52:21;7.03;;;1.13;;
11344;SDS011;5727;42.600;23.028;2022-09-29T06:54:48;2.13;;;1.07;;
11344;SDS011;5727;42.600;23.028;2022-09-29T06:57:14;3.87;;;1.33;;
11344;SDS011;5727;42.600;23.028;2022-09-29T06:59:43;4.00;;;1.17;;
11344;SDS011;5727;42.600;23.028;2022-09-29T07:02:10;2.37;;;1.20;;
11344;SDS011;5727;42.600;23.028;2022-09-29T07:04:38;3.73;;;1.80;;
11344;SDS011;5727;42.600;23.028;2022-09-29T07:07:05;3.47;;;1.20;;
11344;SDS011;5727;42.600;23.028;2022-09-29T07:09:32;4.53;;;1.60;;
11344;SDS011;5727;42.600;23.028;2022-09-29T07:11:58;3.57;;;1.57;;
11344;SDS011;5727;42.600;23.028;2022-09-29T07:14:25;3.57;;;1.30;;
11344;SDS011;5727;42.600;23.028;2022-09-29T07:16:52;2.67;;;1.40;;
11344;SDS011;5727;42.600;23.028;2022-09-29T07:19:19;3.10;;;1.10;;
11344;SDS011;5727;42.600;23.028;2022-09-29T07:21:47;1.23;;;0.90;;
11344;SDS011;5727;42.600;23.028;2022-09-29T07:24:14;6.60;;;2.10;;
11344;SDS011;5727;42.600;23.028;2022-09-29T07:26:41;2.77;;;1.20;;
11344;SDS011;5727;42.600;23.028;2022-09-29T07:29:08;1.93;;;1.00;;
11344;SDS011;5727;42.600;23.028;2022-09-29T07:31:35;3.67;;;1.27;;
11344;SDS011;5727;42.600;23.028;2022-09-29T07:34:02;3.50;;;1.30;;
11344;SDS011;5727;42.600;23.028;2022-09-29T07:36:29;2.90;;;1.20;;
11344;SDS011;5727;42.600;23.028;2022-09-29T07:38:57;2.77;;;1.40;;
11344;SDS011;5727;42.600;23.028;2022-09-29T07:41:24;1.20;;;1.07;;
11344;SDS011;5727;42.600;23.028;2022-09-29T07:43:52;2.83;;;1.10;;
11344;SDS011;5727;42.600;23.028;2022-09-29T07:46:18;2.57;;;1.33;;
11344;SDS011;5727;42.600;23.028;2022-09-29T07:48:46;1.70;;;1.20;;
11344;SDS011;5727;42.600;23.028;2022-09-29T07:51:13;4.30;;;1.47;;
11344;SDS011;5727;42.600;23.028;2022-09-29T07:53:42;3.87;;;1.20;;
11344;SDS011;5727;42.600;23.028;2022-09-29T07:56:11;2.93;;;1.30;;
11344;SDS011;5727;42.600;23.028;2022-09-29T07:58:40;4.50;;;1.30;;
11344;SDS011;5727;42.600;23.028;2022-09-29T08:01:08;3.63;;;1.40;;
11344;SDS011;5727;42.600;23.028;2022-09-29T08:03:37;2.50;;;1.10;;
11344;SDS011;5727;42.600;23.028;2022-09-29T08:06:04;1.53;;;0.90;;
11344;SDS011;5727;42.600;23.028;2022-09-29T08:08:33;2.30;;;1.10;;
11344;SDS011;5727;42.600;23.028;2022-09-29T08:11:01;1.77;;;1.00;;
11344;SDS011;5727;42.600;23.028;2022-09-29T08:13:30;2.60;;;1.37;;
11344;SDS011;5727;42.600;23.028;2022-09-29T08:15:59;4.73;;;2.13;;
11344;SDS011;5727;42.600;23.028;2022-09-29T08:18:27;1.60;;;0.90;;
11344;SDS011;5727;42.600;23.028;2022-09-29T08:20:55;1.10;;;0.70;;
11344;SDS011;5727;42.600;23.028;2022-09-29T08:23:22;3.37;;;1.00;;
11344;SDS011;5727;42.600;23.028;2022-09-29T08:25:49;5.83;;;1.40;;
11344;SDS011;5727;42.600;23.028;2022-09-29T08:28:23;5.60;;;1.10;;
11344;SDS011;5727;42.600;23.028;2022-09-29T08:30:52;3.70;;;1.00;;
11344;SDS011;5727;42.600;23.028;2022-09-29T08:33:18;3.93;;;1.30;;
11344;SDS011;5727;42.600;23.028;2022-09-29T08:35:45;4.47;;;1.30;;
11344;SDS011;5727;42.600;23.028;2022-09-29T08:38:12;1.30;;;0.97;;
11344;SDS011;5727;42.600;23.028;2022-09-29T08:40:39;1.63;;;0.83;;
11344;SDS011;5727;42.600;23.028;2022-09-29T08:43:08;3.27;;;1.10;;
11344;SDS011;5727;42.600;23.028;2022-09-29T08:45:42;4.80;;;1.10;;
11344;SDS011;5727;42.600;23.028;2022-09-29T08:48:15;2.07;;;0.87;;
11344;SDS011;5727;42.600;23.028;2022-09-29T08:50:48;5.70;;;0.87;;
11344;SDS011;5727;42.600;23.028;2022-09-29T08:53:22;1.50;;;0.90;;
11344;SDS011;5727;42.600;23.028;2022-09-29T08:55:51;2.07;;;1.00;;
11344;SDS011;5727;42.600;23.028;2022-09-29T08:58:20;3.47;;;0.70;;
11344;SDS011;5727;42.600;23.028;2022-09-29T09:00:50;3.27;;;0.93;;
11344;SDS011;5727;42.600;23.028;2022-09-29T09:03:32;3.13;;;1.10;;
11344;SDS011;5727;42.600;23.028;2022-09-29T09:06:20;2.13;;;0.60;;
11344;SDS011;5727;42.600;23.028;2022-09-29T09:08:57;1.80;;;0.93;;
11344;SDS011;5727;42.600;23.028;2022-09-29T09:11:53;2.23;;;0.83;;
11344;SDS011;5727;42.600;23.028;2022-09-29T09:14:30;0.73;;;0.50;;
11344;SDS011;5727;42.600;23.028;2022-09-29T09:17:21;8.90;;;0.93;;
11344;SDS011;5727;42.600;23.028;2022-09-29T09:20:01;2.63;;;0.50;;
11344;SDS011;5727;42.600;23.028;2022-09-29T09:22:37;1.93;;;0.70;;
11344;SDS011;5727;42.600;23.028;2022-09-29T09:25:17;3.50;;;0.83;;
11344;SDS011;5727;42.600;23.028;2022-09-29T09:27:47;1.93;;;0.77;;
11344;SDS011;5727;42.600;23.028;2022-09-29T09:30:19;0.83;;;0.60;;
11344;SDS011;5727;42.600;23.028;2022-09-29T09:32:47;2.67;;;0.60;;
11344;SDS011;5727;42.600;23.028;2022-09-29T09:35:30;2.43;;;0.80;;
11344;SDS011;5727;42.600;23.028;2022-09-29T09:38:02;1.40;;;0.70;;
11344;SDS011;5727;42.600;23.028;2022-09-29T09:40:38;1.67;;;0.50;;
11344;SDS011;5727;42.600;23.028;2022-09-29T09:43:09;2.00;;;0.80;;
11344;SDS011;5727;42.600;23.028;2022-09-29T09:45:41;1.07;;;0.50;;
11344;SDS011;5727;42.600;23.028;2022-09-29T09:48:14;2.63;;;0.50;;
11344;SDS011;5727;42.600;23.028;2022-09-29T09:50:46;2.00;;;0.60;;
11344;SDS011;5727;42.600;23.028;2022-09-29T09:53:14;0.63;;;0.40;;
11344;SDS011;5727;42.600;23.028;2022-09-29T10:01:29;4.77;;;0.80;;
11344;SDS011;5727;42.600;23.028;2022-09-29T10:03:56;2.23;;;0.73;;
11344;SDS011;5727;42.600;23.028;2022-09-29T10:06:26;2.53;;;0.80;;
11344;SDS011;5727;42.600;23.028;2022-09-29T10:08:54;3.57;;;0.70;;
11344;SDS011;5727;42.600;23.028;2022-09-29T10:11:24;2.70;;;0.80;;
11344;SDS011;5727;42.600;23.028;2022-09-29T10:13:56;3.87;;;0.93;;
11344;SDS011;5727;42.600;23.028;2022-09-29T10:16:27;0.93;;;0.50;;
11344;SDS011;5727;42.600;23.028;2022-09-29T10:19:00;2.00;;;0.70;;
11344;SDS011;5727;42.600;23.028;2022-09-29T10:21:35;2.37;;;0.73;;
11344;SDS011;5727;42.600;23.028;2022-09-29T10:24:09;2.70;;;0.80;;
11344;SDS011;5727;42.600;23.028;2022-09-29T10:26:47;2.37;;;0.80;;
11344;SDS011;5727;42.600;23.028;2022-09-29T10:29:17;3.17;;;0.90;;
11344;SDS011;5727;42.600;23.028;2022-09-29T10:31:58;2.57;;;0.70;;
11344;SDS011;5727;42.600;23.028;2022-09-29T10:34:28;1.67;;;0.60;;
11344;SDS011;5727;42.600;23.028;2022-09-29T10:36:58;2.37;;;0.70;;
11344;SDS011;5727;42.600;23.028;2022-09-29T10:39:31;1.80;;;0.60;;
11344;SDS011;5727;42.600;23.028;2022-09-29T10:42:04;2.77;;;0.90;;
11344;SDS011;5727;42.600;23.028;2022-09-29T10:44:41;1.23;;;0.70;;
11344;SDS011;5727;42.600;23.028;2022-09-29T10:47:15;2.70;;;0.80;;
11344;SDS011;5727;42.600;23.028;2022-09-29T10:49:41;2.37;;;0.90;;
11344;SDS011;5727;42.600;23.028;2022-09-29T10:52:16;2.73;;;0.80;;
11344;SDS011;5727;42.600;23.028;2022-09-29T10:54:51;1.30;;;0.60;;
11344;SDS011;5727;42.600;23.028;2022-09-29T10:57:22;2.80;;;0.90;;
11344;SDS011;5727;42.600;23.028;2022-09-29T10:59:52;1.47;;;0.80;;
11344;SDS011;5727;42.600;23.028;2022-09-29T11:02:22;3.77;;;0.80;;
11344;SDS011;5727;42.600;23.028;2022-09-29T11:04:54;2.87;;;0.73;;
11344;SDS011;5727;42.600;23.028;2022-09-29T11:07:24;3.00;;;0.53;;
11344;SDS011;5727;42.600;23.028;2022-09-29T11:09:52;1.93;;;0.60;;
11344;SDS011;5727;42.600;23.028;2022-09-29T11:12:29;1.60;;;0.50;;
11344;SDS011;5727;42.600;23.028;2022-09-29T11:14:58;3.90;;;0.60;;
11344;SDS011;5727;42.600;23.028;2022-09-29T11:17:26;1.87;;;1.00;;
11344;SDS011;5727;42.600;23.028;2022-09-29T11:19:55;1.37;;;1.00;;
11344;SDS011;5727;42.600;23.028;2022-09-29T11:22:33;4.13;;;1.13;;
11344;SDS011;5727;42.600;23.028;2022-09-29T11:28:20;2.67;;;0.80;;
11344;SDS011;5727;42.600;23.028;2022-09-29T11:31:13;3.93;;;0.73;;
11344;SDS011;5727;42.600;23.028;2022-09-29T11:33:52;3.83;;;1.10;;
11344;SDS011;5727;42.600;23.028;2022-09-29T11:36:27;1.10;;;0.83;;
11344;SDS011;5727;42.600;23.028;2022-09-29T11:39:09;1.87;;;0.70;;
11344;SDS011;5727;42.600;23.028;2022-09-29T11:41:48;2.63;;;0.90;;
11344;SDS011;5727;42.600;23.028;2022-09-29T11:47:30;2.47;;;0.50;;
11344;SDS011;5727;42.600;23.028;2022-09-29T11:50:16;5.63;;;1.00;;
11344;SDS011;5727;42.600;23.028;2022-09-29T11:53:01;2.57;;;0.80;;
11344;SDS011;5727;42.600;23.028;2022-09-29T11:55:49;1.27;;;0.60;;
11344;SDS011;5727;42.600;23.028;2022-09-29T11:58:40;1.67;;;0.60;;
11344;SDS011;5727;42.600;23.028;2022-09-29T12:01:23;1.90;;;0.80;;
11344;SDS011;5727;42.600;23.028;2022-09-29T12:06:55;3.13;;;0.70;;
11344;SDS011;5727;42.600;23.028;2022-09-29T12:09:36;1.83;;;1.00;;
11344;SDS011;5727;42.600;23.028;2022-09-29T12:12:15;1.77;;;0.70;;
11344;SDS011;5727;42.600;23.028;2022-09-29T12:14:54;1.97;;;0.60;;
11344;SDS011;5727;42.600;23.028;2022-09-29T12:17:29;1.90;;;0.60;;
11344;SDS011;5727;42.600;23.028;2022-09-29T12:20:03;1.00;;;0.60;;
11344;SDS011;5727;42.600;23.028;2022-09-29T12:22:40;2.33;;;0.80;;
11344;SDS011;5727;42.600;23.028;2022-09-29T12:25:10;2.03;;;0.83;;
11344;SDS011;5727;42.600;23.028;2022-09-29T12:27:41;2.73;;;0.63;;
11344;SDS011;5727;42.600;23.028;2022-09-29T12:30:14;1.73;;;0.53;;
11344;SDS011;5727;42.600;23.028;2022-09-29T12:32:48;2.30;;;0.60;;
11344;SDS011;5727;42.600;23.028;2022-09-29T12:35:22;2.80;;;0.63;;
11344;SDS011;5727;42.600;23.028;2022-09-29T12:37:55;2.00;;;0.53;;
11344;SDS011;5727;42.600;23.028;2022-09-29T12:40:27;2.50;;;0.60;;
11344;SDS011;5727;42.600;23.028;2022-09-29T12:43:01;1.27;;;0.57;;
11344;SDS011;5727;42.600;23.028;2022-09-29T12:45:39;2.33;;;0.80;;
11344;SDS011;5727;42.600;23.028;2022-09-29T12:48:22;4.77;;;0.80;;
11344;SDS011;5727;42.600;23.028;2022-09-29T12:50:58;1.80;;;0.70;;
11344;SDS011;5727;42.600;23.028;2022-09-29T12:53:30;2.57;;;0.80;;
11344;SDS011;5727;42.600;23.028;2022-09-29T12:56:03;2.43;;;0.40;;
11344;SDS011;5727;42.600;23.028;2022-09-29T12:58:37;2.17;;;0.50;;
11344;SDS011;5727;42.600;23.028;2022-09-29T13:01:16;2.50;;;0.67;;
11344;SDS011;5727;42.600;23.028;2022-09-29T13:03:53;1.30;;;0.70;;
11344;SDS011;5727;42.600;23.028;2022-09-29T13:06:57;0.93;;;0.57;;
11344;SDS011;5727;42.600;23.028;2022-09-29T13:09:53;2.37;;;0.60;;
11344;SDS011;5727;42.600;23.028;2022-09-29T13:12:45;1.87;;;0.70;;
11344;SDS011;5727;42.600;23.028;2022-09-29T13:15:35;3.47;;;0.80;;
11344;SDS011;5727;42.600;23.028;2022-09-29T13:18:23;2.20;;;0.77;;
11344;SDS011;5727;42.600;23.028;2022-09-29T13:21:07;3.57;;;0.77;;
11344;SDS011;5727;42.600;23.028;2022-09-29T13:23:47;1.87;;;0.87;;
11344;SDS011;5727;42.600;23.028;2022-09-29T13:26:29;2.20;;;0.80;;
11344;SDS011;5727;42.600;23.028;2022-09-29T13:29:09;2.70;;;0.90;;
11344;SDS011;5727;42.600;23.028;2022-09-29T13:31:42;1.07;;;0.53;;
11344;SDS011;5727;42.600;23.028;2022-09-29T13:34:18;1.90;;;1.10;;
11344;SDS011;5727;42.600;23.028;2022-09-29T13:36:53;4.07;;;1.33;;
11344;SDS011;5727;42.600;23.028;2022-09-29T13:39:29;2.70;;;0.80;;
11344;SDS011;5727;42.600;23.028;2022-09-29T13:41:56;2.30;;;0.87;;
11344;SDS011;5727;42.600;23.028;2022-09-29T13:45:35;1.80;;;0.63;;
11344;SDS011;5727;42.600;23.028;2022-09-29T13:51:38;2.60;;;0.83;;
11344;SDS011;5727;42.600;23.028;2022-09-29T13:54:18;4.27;;;1.23;;
11344;SDS011;5727;42.600;23.028;2022-09-29T13:56:50;3.13;;;1.00;;
11344;SDS011;5727;42.600;23.028;2022-09-29T13:59:25;3.93;;;1.27;;
11344;SDS011;5727;42.600;23.028;2022-09-29T14:01:54;1.93;;;0.87;;
11344;SDS011;5727;42.600;23.028;2022-09-29T14:04:31;1.93;;;0.80;;
11344;SDS011;5727;42.600;23.028;2022-09-29T14:07:05;3.23;;;1.00;;
11344;SDS011;5727;42.600;23.028;2022-09-29T14:09:37;2.57;;;0.87;;
11344;SDS011;5727;42.600;23.028;2022-09-29T14:12:08;1.93;;;0.70;;
11344;SDS011;5727;42.600;23.028;2022-09-29T14:14:41;4.30;;;0.80;;
11344;SDS011;5727;42.600;23.028;2022-09-29T14:17:12;1.80;;;1.10;;
11344;SDS011;5727;42.600;23.028;2022-09-29T14:19:47;2.30;;;0.70;;
11344;SDS011;5727;42.600;23.028;2022-09-29T14:28:20;2.03;;;0.87;;
11344;SDS011;5727;42.600;23.028;2022-09-29T14:30:55;4.40;;;1.20;;
11344;SDS011;5727;42.600;23.028;2022-09-29T14:33:28;4.03;;;1.20;;
11344;SDS011;5727;42.600;23.028;2022-09-29T14:36:01;3.30;;;1.00;;
11344;SDS011;5727;42.600;23.028;2022-09-29T14:38:32;6.67;;;1.33;;
11344;SDS011;5727;42.600;23.028;2022-09-29T14:41:03;2.33;;;0.80;;
11344;SDS011;5727;42.600;23.028;2022-09-29T14:43:49;3.40;;;1.17;;
11344;SDS011;5727;42.600;23.028;2022-09-29T14:49:36;2.47;;;0.70;;
11344;SDS011;5727;42.600;23.028;2022-09-29T14:52:32;1.30;;;0.80;;
11344;SDS011;5727;42.600;23.028;2022-09-29T14:55:12;3.60;;;1.23;;
11344;SDS011;5727;42.600;23.028;2022-09-29T14:58:00;6.27;;;0.90;;
11344;SDS011;5727;42.600;23.028;2022-09-29T15:00:49;2.73;;;0.80;;
11344;SDS011;5727;42.600;23.028;2022-09-29T15:03:27;3.07;;;1.17;;
11344;SDS011;5727;42.600;23.028;2022-09-29T15:06:03;4.47;;;1.63;;
11344;SDS011;5727;42.600;23.028;2022-09-29T15:08:32;3.70;;;1.43;;
11344;SDS011;5727;42.600;23.028;2022-09-29T15:11:02;4.47;;;1.57;;
11344;SDS011;5727;42.600;23.028;2022-09-29T15:13:31;5.17;;;1.73;;
11344;SDS011;5727;42.600;23.028;2022-09-29T15:15:59;2.60;;;1.50;;
11344;SDS011;5727;42.600;23.028;2022-09-29T15:18:39;2.17;;;1.07;;
11344;SDS011;5727;42.600;23.028;2022-09-29T15:21:36;2.93;;;1.23;;
11344;SDS011;5727;42.600;23.028;2022-09-29T15:24:22;2.77;;;1.60;;
11344;SDS011;5727;42.600;23.028;2022-09-29T15:27:17;3.40;;;1.50;;
11344;SDS011;5727;42.600;23.028;2022-09-29T15:29:57;3.97;;;1.40;;
11344;SDS011;5727;42.600;23.028;2022-09-29T15:32:42;3.20;;;1.40;;
11344;SDS011;5727;42.600;23.028;2022-09-29T15:35:16;5.70;;;1.87;;
11344;SDS011;5727;42.600;23.028;2022-09-29T15:37:57;3.80;;;2.20;;
11344;SDS011;5727;42.600;23.028;2022-09-29T15:40:45;4.37;;;2.10;;
11344;SDS011;5727;42.600;23.028;2022-09-29T15:43:21;5.10;;;2.50;;